Time;durP1;ratioP1;P1;durP2;ratioP2;P2;SDS_P1;SDS_P2;PMS_P1;PMS_P2;Temp;Humidity;BMP_temperature;BMP_pressure;BME280_temperature;BME280_humidity;BME280_pressure;Samples;Min_cycle;Max_cycle;Signal;HPM_P1;HPM_P2
2023/01/01 00:03:32;;;;;;;1999.90;999.90;;;15.70;99.90;;;;;;6729230;88;20189;-78
2023/01/01 00:13:49;;;;;;;1999.90;999.90;;;15.60;99.90;;;;;;6728373;88;20219;-78
2023/01/01 00:23:50;;;;;;;1999.90;999.90;;;15.70;99.90;;;;;;6731426;88;20198;-77
2023/01/01 00:34:11;;;;;;;1999.90;999.90;;;15.70;99.90;;;;;;6735259;88;20185;-78
2023/01/01 00:44:42;;;;;;;1999.90;999.90;;;15.80;99.90;;;;;;6681080;89;20223;-78
2023/01/01 00:54:44;;;;;;;1999.90;999.90;;;15.90;99.90;;;;;;6685648;88;20198;-77
2023/01/01 01:04:50;;;;;;;1999.90;999.90;;;15.90;99.90;;;;;;6718805;88;20192;-78
2023/01/01 01:14:50;;;;;;;1999.90;999.90;;;15.80;99.90;;;;;;6710674;88;20654;-78
2023/01/01 01:24:51;;;;;;;1999.90;999.90;;;15.70;99.90;;;;;;6710299;88;20201;-78
2023/01/01 01:34:51;;;;;;;1999.90;999.90;;;15.80;99.90;;;;;;6717076;88;20231;-77
2023/01/01 01:44:59;;;;;;;1999.90;999.90;;;15.60;99.90;;;;;;6715652;88;20643;-78
2023/01/01 01:55:01;;;;;;;1999.90;999.90;;;15.60;99.90;;;;;;6713607;88;20205;-77
2023/01/01 02:05:02;;;;;;;1999.90;999.90;;;15.60;99.90;;;;;;6714384;88;20754;-77
2023/01/01 02:15:04;;;;;;;1999.90;999.90;;;15.50;99.90;;;;;;6714728;88;20194;-76
2023/01/01 02:25:42;;;;;;;1999.90;999.90;;;15.50;99.90;;;;;;6716160;88;20233;-75
2023/01/01 02:35:50;;;;;;;1999.90;999.90;;;15.50;99.90;;;;;;6713341;88;20202;-77
2023/01/01 02:45:53;;;;;;;1999.90;999.90;;;15.40;99.90;;;;;;6717712;88;20219;-77
2023/01/01 02:55:59;;;;;;;1999.90;999.90;;;15.50;99.90;;;;;;6716936;88;20220;-78
2023/01/01 03:06:21;;;;;;;1999.90;999.90;;;15.30;99.90;;;;;;6721072;88;20610;-78
2023/01/01 03:16:42;;;;;;;1999.90;999.90;;;15.20;99.90;;;;;;6716089;88;20746;-78
2023/01/01 03:26:46;;;;;;;1999.90;999.90;;;15.20;99.90;;;;;;6715943;88;20593;-78
2023/01/01 03:36:54;;;;;;;1999.90;999.90;;;15.30;99.90;;;;;;6716819;88;20328;-78
2023/01/01 03:46:54;;;;;;;1999.90;999.90;;;15.10;99.90;;;;;;6719448;88;20485;-78
2023/01/01 03:57:07;;;;;;;1999.90;999.90;;;15.10;99.90;;;;;;6717510;88;20241;-78
2023/01/01 04:07:08;;;;;;;1999.90;999.90;;;15.10;99.90;;;;;;6716207;88;20187;-78
2023/01/01 04:17:10;;;;;;;1999.90;999.90;;;15.10;99.90;;;;;;6716346;88;20688;-79
2023/01/01 04:27:10;;;;;;;1999.90;999.90;;;15.10;99.90;;;;;;6715803;88;20623;-78
2023/01/01 04:37:11;;;;;;;1999.90;999.90;;;15.10;99.90;;;;;;6715229;88;20194;-79
2023/01/01 04:47:12;;;;;;;1999.90;999.90;;;15.00;99.90;;;;;;6714883;88;20204;-78
2023/01/01 04:57:13;;;;;;;1999.90;999.90;;;15.10;99.90;;;;;;6714707;88;20331;-79
2023/01/01 05:07:13;;;;;;;1999.90;999.90;;;14.90;99.90;;;;;;6715055;88;20269;-76
2023/01/01 05:17:14;;;;;;;1999.90;999.90;;;15.00;99.90;;;;;;6718708;88;20267;-77
2023/01/01 05:27:14;;;;;;;1999.90;999.90;;;14.90;99.90;;;;;;6733699;88;20394;-76
2023/01/01 05:37:15;;;;;;;1999.90;999.90;;;14.90;99.90;;;;;;6732166;88;20188;-77
2023/01/01 05:47:17;;;;;;;1999.90;999.90;;;15.00;99.90;;;;;;6734186;88;20295;-76
2023/01/01 05:57:17;;;;;;;1999.90;999.90;;;15.10;99.90;;;;;;6716499;76;20203;-75
2023/01/01 06:07:18;;;;;;;1999.90;999.90;;;15.00;99.90;;;;;;6668517;88;20191;-73
2023/01/01 06:17:19;;;;;;;1999.90;999.90;;;14.90;99.90;;;;;;6663712;89;20393;-74
2023/01/01 06:27:19;;;;;;;1999.90;999.90;;;15.00;99.90;;;;;;6672547;89;20211;-75
2023/01/01 06:37:20;;;;;;;1999.90;999.90;;;14.90;99.90;;;;;;6663898;89;20722;-74
2023/01/01 06:47:20;;;;;;;1999.90;999.90;;;14.90;99.90;;;;;;6663701;89;20299;-74
2023/01/01 06:57:22;;;;;;;1999.90;999.90;;;14.70;99.90;;;;;;6661176;89;20215;-74
2023/01/01 07:07:22;;;;;;;1999.90;999.90;;;14.60;99.90;;;;;;6662694;89;20223;-74
2023/01/01 07:17:23;;;;;;;1999.90;999.90;;;14.60;99.90;;;;;;6662015;89;20257;-74
2023/01/01 07:27:23;;;;;;;1999.90;999.90;;;14.60;99.90;;;;;;6662572;89;20340;-75
2023/01/01 07:37:25;;;;;;;1999.90;999.90;;;14.60;99.90;;;;;;6662584;89;20683;-74
2023/01/01 07:47:26;;;;;;;1999.90;999.90;;;14.70;99.90;;;;;;6664130;89;20248;-74
2023/01/01 07:57:26;;;;;;;1999.90;999.90;;;14.70;99.90;;;;;;6658748;89;20254;-75
2023/01/01 08:07:27;;;;;;;1999.90;999.90;;;14.70;99.90;;;;;;6663123;89;20711;-75
2023/01/01 08:17:27;;;;;;;1999.90;999.90;;;14.80;99.90;;;;;;6664303;89;20250;-74
2023/01/01 08:27:28;;;;;;;1999.90;999.90;;;14.90;99.90;;;;;;6664190;89;20968;-75
2023/01/01 08:37:28;;;;;;;1999.90;999.90;;;14.90;99.90;;;;;;6662820;89;20245;-74
2023/01/01 08:47:29;;;;;;;1999.90;999.90;;;14.90;99.90;;;;;;6656460;89;20770;-74
2023/01/01 08:57:30;;;;;;;1999.90;999.90;;;14.80;99.90;;;;;;6661286;89;20199;-75
2023/01/01 09:07:31;;;;;;;1999.90;999.90;;;14.90;99.90;;;;;;6661422;89;20244;-75
2023/01/01 09:17:31;;;;;;;1999.90;999.90;;;14.80;99.90;;;;;;6662374;89;20301;-74
2023/01/01 09:27:32;;;;;;;1999.90;999.90;;;14.90;99.90;;;;;;6663064;89;20196;-74
2023/01/01 09:37:33;;;;;;;1999.90;999.90;;;14.90;99.90;;;;;;6654759;89;20219;-73
2023/01/01 09:47:42;;;;;;;1999.90;999.90;;;14.90;99.90;;;;;;6661928;89;20195;-74
2023/01/01 09:57:43;;;;;;;1999.90;999.90;;;14.90;99.90;;;;;;6660142;89;20223;-74
2023/01/01 10:08:01;;;;;;;1999.90;999.90;;;14.90;99.90;;;;;;6667315;89;21424;-74
2023/01/01 10:18:08;;;;;;;1999.90;999.90;;;15.00;99.90;;;;;;6664427;89;20176;-74
2023/01/01 10:28:34;;;;;;;1999.90;999.90;;;15.10;99.90;;;;;;6658372;89;20258;-76
2023/01/01 10:38:35;;;;;;;1999.90;999.90;;;15.10;99.90;;;;;;6661259;89;20700;-73
2023/01/01 10:48:36;;;;;;;1999.90;999.90;;;15.00;99.90;;;;;;6662697;89;20207;-73
2023/01/01 10:58:40;;;;;;;1999.90;999.90;;;15.10;99.90;;;;;;6666698;89;20204;-74
2023/01/01 11:08:50;;;;;;;1999.90;999.90;;;15.10;99.90;;;;;;6661306;89;20636;-74
2023/01/01 11:18:51;;;;;;;1999.90;999.90;;;15.10;99.90;;;;;;6662213;89;20711;-75
2023/01/01 11:29:01;;;;;;;1999.90;999.90;;;15.10;99.90;;;;;;6660727;89;20307;-75
2023/01/01 11:39:25;;;;;;;1999.90;999.90;;;15.10;99.90;;;;;;6663554;89;20608;-74
2023/01/01 11:49:28;;;;;;;1999.90;999.90;;;15.10;99.90;;;;;;6665665;89;20201;-74
2023/01/01 11:59:57;;;;;;;1999.90;999.90;;;15.00;99.90;;;;;;6694273;77;20617;-76
2023/01/01 12:10:17;;;;;;;1999.90;999.90;;;15.10;99.90;;;;;;6705906;88;20316;-77
2023/01/01 12:20:45;;;;;;;1999.90;999.90;;;15.10;99.90;;;;;;6701549;88;20213;-76
2023/01/01 12:31:09;;;;;;;1999.90;999.90;;;15.10;99.90;;;;;;6705133;88;20205;-76
2023/01/01 12:41:32;;;;;;;1999.90;999.90;;;15.10;99.90;;;;;;6704295;88;20204;-75
2023/01/01 12:51:46;;;;;;;1999.90;999.90;;;15.10;99.90;;;;;;6704662;88;20195;-75
2023/01/01 13:01:48;;;;;;;1999.90;999.90;;;15.30;99.90;;;;;;6703441;88;20185;-78
2023/01/01 13:11:54;;;;;;;1999.90;999.90;;;15.30;99.90;;;;;;6720183;88;20186;-80
2023/01/01 13:21:55;;;;;;;1999.90;999.90;;;15.30;99.90;;;;;;6715354;88;20218;-77
2023/01/01 13:32:01;;;;;;;1999.90;999.90;;;15.40;99.90;;;;;;6713137;88;20686;-78
2023/01/01 13:42:02;;;;;;;1999.90;999.90;;;15.30;99.90;;;;;;6716153;88;20197;-79
2023/01/01 13:52:26;;;;;;;1999.90;999.90;;;15.10;99.90;;;;;;6714879;88;20219;-78
2023/01/01 14:02:32;;;;;;;1999.90;999.90;;;15.20;99.90;;;;;;6694820;88;20225;-78
2023/01/01 14:12:37;;;;;;;1999.90;999.90;;;15.20;99.90;;;;;;6693770;88;20588;-78
2023/01/01 14:22:38;;;;;;;1999.90;999.90;;;15.20;99.90;;;;;;6693813;88;20195;-77
2023/01/01 14:32:38;;;;;;;1999.90;999.90;;;15.20;99.90;;;;;;6697899;88;20202;-78
2023/01/01 14:42:39;;;;;;;1999.90;999.90;;;15.20;99.90;;;;;;6697861;88;20623;-79
2023/01/01 14:52:40;;;;;;;1999.90;999.90;;;15.10;99.90;;;;;;6694837;88;20182;-78
2023/01/01 15:02:41;;;;;;;1999.90;999.90;;;15.10;99.90;;;;;;6700236;88;20183;-79
2023/01/01 15:12:41;;;;;;;1999.90;999.90;;;15.00;99.90;;;;;;6695809;88;20234;-77
2023/01/01 15:22:43;;;;;;;1999.90;999.90;;;14.90;99.90;;;;;;6698243;88;20328;-79
2023/01/01 15:32:43;;;;;;;1999.90;999.90;;;14.80;99.90;;;;;;6703806;88;20198;-77
2023/01/01 15:42:47;;;;;;;1999.90;999.90;;;14.80;99.90;;;;;;6697785;88;20332;-77
2023/01/01 15:52:51;;;;;;;1999.90;999.90;;;14.80;99.90;;;;;;6697680;88;20194;-78
2023/01/01 16:02:55;;;;;;;1999.90;999.90;;;14.80;99.90;;;;;;6690757;88;20183;-77
2023/01/01 16:12:56;;;;;;;1999.90;999.90;;;14.60;99.90;;;;;;6694461;88;20215;-78
2023/01/01 16:22:56;;;;;;;1999.90;999.90;;;14.40;99.90;;;;;;6698579;88;20212;-77
2023/01/01 16:32:57;;;;;;;1999.90;999.90;;;14.10;99.90;;;;;;6699781;88;20608;-78
2023/01/01 16:42:58;;;;;;;1999.90;999.90;;;13.90;99.90;;;;;;6695001;88;20206;-77
2023/01/01 16:52:58;;;;;;;1999.90;999.90;;;13.80;99.90;;;;;;6703710;88;20179;-78
2023/01/01 17:02:59;;;;;;;1999.90;999.90;;;13.70;99.90;;;;;;6719846;88;20602;-79
2023/01/01 17:13:02;;;;;;;1999.90;999.90;;;13.60;99.90;;;;;;6714358;88;20640;-78
2023/01/01 17:23:03;;;;;;;1999.90;999.90;;;13.60;99.90;;;;;;6713740;88;20375;-78
2023/01/01 17:33:03;;;;;;;1999.90;999.90;;;13.50;99.90;;;;;;6710505;88;20259;-77
2023/01/01 17:43:04;;;;;;;1999.90;999.90;;;13.40;99.90;;;;;;6708375;88;20216;-77
2023/01/01 17:53:04;;;;;;;1999.90;999.90;;;13.30;99.90;;;;;;6712365;88;20182;-78
2023/01/01 18:03:05;;;;;;;1999.90;999.90;;;12.80;99.90;;;;;;6731627;77;20206;-75
2023/01/01 18:13:05;;;;;;;1999.90;999.90;;;12.60;99.90;;;;;;6709512;88;20403;-75
2023/01/01 18:23:06;;;;;;;1999.90;999.90;;;12.30;99.90;;;;;;6703975;88;20190;-75
2023/01/01 18:33:06;;;;;;;1999.90;999.90;;;12.20;99.90;;;;;;6705897;88;20193;-75
2023/01/01 18:43:14;;;;;;;1999.90;999.90;;;12.00;99.90;;;;;;6704060;88;20195;-75
2023/01/01 18:53:22;;;;;;;1999.90;999.90;;;12.00;99.90;;;;;;6698876;88;20266;-74
2023/01/01 19:03:26;;;;;;;1999.90;999.90;;;12.10;99.90;;;;;;6717425;88;20211;-75
2023/01/01 19:13:40;;;;;;;1999.90;999.90;;;12.10;99.90;;;;;;6715821;88;20845;-76
2023/01/01 19:23:55;;;;;;;1999.90;999.90;;;12.20;99.90;;;;;;6726532;88;20748;-75
2023/01/01 19:33:56;;;;;;;1999.90;999.90;;;12.30;99.90;;;;;;6716287;88;20276;-75
2023/01/01 19:43:57;;;;;;;1999.90;999.90;;;12.30;99.90;;;;;;6724603;88;20248;-75
2023/01/01 19:53:57;;;;;;;1999.90;999.90;;;12.40;99.90;;;;;;6727717;88;20308;-75
2023/01/01 20:03:58;;;;;;;1999.90;999.90;;;12.50;99.90;;;;;;6723427;88;20190;-74
2023/01/01 20:13:58;;;;;;;1999.90;999.90;;;12.40;99.90;;;;;;6716251;88;20439;-74
2023/01/01 20:23:59;;;;;;;1999.90;999.90;;;12.60;99.90;;;;;;6717872;88;20220;-75
2023/01/01 20:33:59;;;;;;;1999.90;999.90;;;12.70;99.90;;;;;;6724794;88;20735;-75
2023/01/01 20:44:00;;;;;;;1999.90;999.90;;;12.80;99.90;;;;;;6720978;88;20633;-75
2023/01/01 20:54:00;;;;;;;1999.90;999.90;;;13.00;99.90;;;;;;6721073;88;20259;-75
2023/01/01 21:04:01;;;;;;;1999.90;999.90;;;13.10;99.90;;;;;;6724389;88;20194;-75
2023/01/01 21:14:02;;;;;;;1999.90;999.90;;;13.30;99.90;;;;;;6721490;88;20172;-74
2023/01/01 21:24:15;;;;;;;1999.90;999.90;;;13.40;99.90;;;;;;6721247;88;20202;-74
2023/01/01 21:34:25;;;;;;;1999.90;999.90;;;13.50;99.90;;;;;;6723697;88;20201;-75
2023/01/01 21:44:25;;;;;;;1999.90;999.90;;;13.60;99.90;;;;;;6723344;88;20258;-75
2023/01/01 21:54:32;;;;;;;1999.90;999.90;;;13.70;99.90;;;;;;6718445;88;20343;-75
2023/01/01 22:04:46;;;;;;;1999.90;999.90;;;13.80;99.90;;;;;;6719122;88;20278;-74
2023/01/01 22:14:49;;;;;;;1999.90;999.90;;;13.80;99.90;;;;;;6727951;88;20196;-74
2023/01/01 22:24:59;;;;;;;1999.90;999.90;;;13.90;99.90;;;;;;6723123;88;20623;-74
2023/01/01 22:35:05;;;;;;;1999.90;999.90;;;13.90;99.90;;;;;;6719592;88;20193;-75
2023/01/01 22:45:13;;;;;;;1999.90;999.90;;;13.90;99.90;;;;;;6722368;88;20334;-75
2023/01/01 22:55:15;;;;;;;1999.90;999.90;;;14.00;99.90;;;;;;6722156;88;20196;-74
2023/01/01 23:05:15;;;;;;;1999.90;999.90;;;14.10;99.90;;;;;;6725615;88;20194;-74
2023/01/01 23:25:35;;;;;;;1999.90;999.90;;;14.20;99.90;;;;;;6728124;88;20209;-74
2023/01/01 23:35:36;;;;;;;1999.90;999.90;;;14.30;99.90;;;;;;6729140;88;20248;-74
2023/01/01 23:45:37;;;;;;;1999.90;999.90;;;14.30;99.90;;;;;;6725235;88;20219;-75
2023/01/01 23:55:37;;;;;;;1999.90;999.90;;;14.30;99.90;;;;;;6730436;76;20216;-76
